sensor_id;sensor_type;location;lat;lon;timestamp;P1;durP1;ratioP1;P2;durP2;ratioP2
16998;SDS011;10211;49.476;11.010;2023-07-02T00:01:19;1.70;;;1.60;;
16998;SDS011;10211;49.476;11.010;2023-07-02T00:03:45;2.10;;;1.90;;
16998;SDS011;10211;49.476;11.010;2023-07-02T00:06:12;3.60;;;2.00;;
16998;SDS011;10211;49.476;11.010;2023-07-02T00:08:39;2.00;;;1.83;;
16998;SDS011;10211;49.476;11.010;2023-07-02T00:11:06;2.23;;;2.03;;
16998;SDS011;10211;49.476;11.010;2023-07-02T00:13:37;2.70;;;1.70;;
16998;SDS011;10211;49.476;11.010;2023-07-02T00:16:04;1.90;;;1.80;;
16998;SDS011;10211;49.476;11.010;2023-07-02T00:18:32;1.70;;;1.60;;
16998;SDS011;10211;49.476;11.010;2023-07-02T00:20:59;1.90;;;1.80;;
16998;SDS011;10211;49.476;11.010;2023-07-02T00:23:27;2.43;;;2.23;;
16998;SDS011;10211;49.476;11.010;2023-07-02T00:25:54;2.30;;;2.10;;
16998;SDS011;10211;49.476;11.010;2023-07-02T00:28:21;2.20;;;2.07;;
16998;SDS011;10211;49.476;11.010;2023-07-02T00:30:47;2.83;;;2.27;;
16998;SDS011;10211;49.476;11.010;2023-07-02T00:33:14;2.70;;;2.50;;
16998;SDS011;10211;49.476;11.010;2023-07-02T00:35:42;2.73;;;2.53;;
16998;SDS011;10211;49.476;11.010;2023-07-02T00:38:09;1.90;;;1.80;;
16998;SDS011;10211;49.476;11.010;2023-07-02T00:40:36;3.70;;;2.37;;
16998;SDS011;10211;49.476;11.010;2023-07-02T00:43:03;6.17;;;2.27;;
16998;SDS011;10211;49.476;11.010;2023-07-02T00:45:30;4.23;;;2.80;;
16998;SDS011;10211;49.476;11.010;2023-07-02T00:47:56;2.90;;;2.70;;
16998;SDS011;10211;49.476;11.010;2023-07-02T00:50:23;4.33;;;2.80;;
16998;SDS011;10211;49.476;11.010;2023-07-02T00:52:53;2.50;;;2.30;;
16998;SDS011;10211;49.476;11.010;2023-07-02T00:55:21;3.70;;;2.43;;
16998;SDS011;10211;49.476;11.010;2023-07-02T00:57:47;2.40;;;2.20;;
16998;SDS011;10211;49.476;11.010;2023-07-02T01:00:15;2.37;;;2.20;;
16998;SDS011;10211;49.476;11.010;2023-07-02T01:02:42;2.53;;;2.27;;
16998;SDS011;10211;49.476;11.010;2023-07-02T01:05:13;2.93;;;2.60;;
16998;SDS011;10211;49.476;11.010;2023-07-02T01:07:40;4.63;;;2.67;;
16998;SDS011;10211;49.476;11.010;2023-07-02T01:10:09;2.87;;;2.40;;
16998;SDS011;10211;49.476;11.010;2023-07-02T01:12:35;2.77;;;2.57;;
16998;SDS011;10211;49.476;11.010;2023-07-02T01:15:03;2.60;;;2.40;;
16998;SDS011;10211;49.476;11.010;2023-07-02T01:17:32;2.60;;;2.40;;
16998;SDS011;10211;49.476;11.010;2023-07-02T01:20:06;3.20;;;2.30;;
16998;SDS011;10211;49.476;11.010;2023-07-02T01:22:35;3.37;;;2.43;;
16998;SDS011;10211;49.476;11.010;2023-07-02T01:25:02;3.00;;;2.80;;
16998;SDS011;10211;49.476;11.010;2023-07-02T01:27:30;3.13;;;2.50;;
16998;SDS011;10211;49.476;11.010;2023-07-02T01:30:00;2.67;;;2.47;;
16998;SDS011;10211;49.476;11.010;2023-07-02T01:32:27;2.57;;;2.37;;
16998;SDS011;10211;49.476;11.010;2023-07-02T01:34:54;2.37;;;2.17;;
16998;SDS011;10211;49.476;11.010;2023-07-02T01:37:22;2.50;;;2.30;;
16998;SDS011;10211;49.476;11.010;2023-07-02T01:39:48;2.23;;;2.10;;
16998;SDS011;10211;49.476;11.010;2023-07-02T01:42:16;2.07;;;1.97;;
16998;SDS011;10211;49.476;11.010;2023-07-02T01:44:44;2.47;;;2.37;;
16998;SDS011;10211;49.476;11.010;2023-07-02T01:47:12;2.50;;;2.33;;
16998;SDS011;10211;49.476;11.010;2023-07-02T01:49:39;2.47;;;2.23;;
16998;SDS011;10211;49.476;11.010;2023-07-02T01:52:06;2.47;;;2.27;;
16998;SDS011;10211;49.476;11.010;2023-07-02T01:54:34;2.60;;;2.40;;
16998;SDS011;10211;49.476;11.010;2023-07-02T01:57:01;2.13;;;1.93;;
16998;SDS011;10211;49.476;11.010;2023-07-02T01:59:28;2.40;;;2.20;;
16998;SDS011;10211;49.476;11.010;2023-07-02T02:01:55;2.47;;;2.27;;
16998;SDS011;10211;49.476;11.010;2023-07-02T02:04:22;2.70;;;2.50;;
16998;SDS011;10211;49.476;11.010;2023-07-02T02:06:49;3.17;;;2.00;;
16998;SDS011;10211;49.476;11.010;2023-07-02T02:09:17;2.50;;;2.30;;
16998;SDS011;10211;49.476;11.010;2023-07-02T02:11:47;2.23;;;2.10;;
16998;SDS011;10211;49.476;11.010;2023-07-02T02:14:14;3.57;;;2.40;;
16998;SDS011;10211;49.476;11.010;2023-07-02T02:16:42;2.43;;;2.20;;
16998;SDS011;10211;49.476;11.010;2023-07-02T02:19:11;2.23;;;2.13;;
16998;SDS011;10211;49.476;11.010;2023-07-02T02:21:39;2.00;;;1.90;;
16998;SDS011;10211;49.476;11.010;2023-07-02T02:24:06;3.57;;;2.40;;
16998;SDS011;10211;49.476;11.010;2023-07-02T02:26:33;2.47;;;2.00;;
16998;SDS011;10211;49.476;11.010;2023-07-02T02:29:01;3.47;;;2.10;;
16998;SDS011;10211;49.476;11.010;2023-07-02T02:31:28;2.03;;;1.93;;
16998;SDS011;10211;49.476;11.010;2023-07-02T02:33:55;2.30;;;2.20;;
16998;SDS011;10211;49.476;11.010;2023-07-02T02:36:22;2.50;;;2.30;;
16998;SDS011;10211;49.476;11.010;2023-07-02T02:38:49;2.57;;;2.37;;
16998;SDS011;10211;49.476;11.010;2023-07-02T02:41:15;2.77;;;2.40;;
16998;SDS011;10211;49.476;11.010;2023-07-02T02:43:42;2.93;;;2.73;;
16998;SDS011;10211;49.476;11.010;2023-07-02T02:46:10;2.53;;;2.33;;
16998;SDS011;10211;49.476;11.010;2023-07-02T02:48:37;2.87;;;2.33;;
16998;SDS011;10211;49.476;11.010;2023-07-02T02:51:04;3.73;;;2.40;;
16998;SDS011;10211;49.476;11.010;2023-07-02T02:53:31;4.13;;;2.47;;
16998;SDS011;10211;49.476;11.010;2023-07-02T02:55:57;3.17;;;2.13;;
16998;SDS011;10211;49.476;11.010;2023-07-02T02:58:24;2.70;;;2.50;;
16998;SDS011;10211;49.476;11.010;2023-07-02T03:00:53;3.13;;;2.40;;
16998;SDS011;10211;49.476;11.010;2023-07-02T03:03:21;2.80;;;2.50;;
16998;SDS011;10211;49.476;11.010;2023-07-02T03:05:49;3.03;;;1.87;;
16998;SDS011;10211;49.476;11.010;2023-07-02T03:08:15;2.47;;;1.93;;
16998;SDS011;10211;49.476;11.010;2023-07-02T03:10:42;1.67;;;1.57;;
16998;SDS011;10211;49.476;11.010;2023-07-02T03:13:09;2.03;;;1.80;;
16998;SDS011;10211;49.476;11.010;2023-07-02T03:15:35;2.37;;;1.80;;
16998;SDS011;10211;49.476;11.010;2023-07-02T03:18:02;3.80;;;1.70;;
16998;SDS011;10211;49.476;11.010;2023-07-02T03:20:30;2.07;;;1.70;;
16998;SDS011;10211;49.476;11.010;2023-07-02T03:22:57;2.17;;;1.93;;
16998;SDS011;10211;49.476;11.010;2023-07-02T03:25:23;1.70;;;1.60;;
16998;SDS011;10211;49.476;11.010;2023-07-02T03:27:50;3.57;;;2.00;;
16998;SDS011;10211;49.476;11.010;2023-07-02T03:30:17;1.63;;;1.53;;
16998;SDS011;10211;49.476;11.010;2023-07-02T03:32:43;2.10;;;1.70;;
16998;SDS011;10211;49.476;11.010;2023-07-02T03:35:10;2.23;;;1.77;;
16998;SDS011;10211;49.476;11.010;2023-07-02T03:37:38;2.07;;;1.73;;
16998;SDS011;10211;49.476;11.010;2023-07-02T03:40:07;2.90;;;1.90;;
16998;SDS011;10211;49.476;11.010;2023-07-02T03:42:34;2.67;;;1.97;;
16998;SDS011;10211;49.476;11.010;2023-07-02T03:45:01;2.27;;;1.90;;
16998;SDS011;10211;49.476;11.010;2023-07-02T03:47:28;3.90;;;1.80;;
16998;SDS011;10211;49.476;11.010;2023-07-02T03:49:55;3.43;;;2.00;;
16998;SDS011;10211;49.476;11.010;2023-07-02T03:52:21;3.10;;;1.70;;
16998;SDS011;10211;49.476;11.010;2023-07-02T03:54:49;1.33;;;1.20;;
16998;SDS011;10211;49.476;11.010;2023-07-02T03:57:16;5.40;;;1.97;;
16998;SDS011;10211;49.476;11.010;2023-07-02T03:59:43;1.97;;;1.50;;
16998;SDS011;10211;49.476;11.010;2023-07-02T04:02:09;2.03;;;1.70;;
16998;SDS011;10211;49.476;11.010;2023-07-02T04:04:36;3.43;;;1.50;;
16998;SDS011;10211;49.476;11.010;2023-07-02T04:07:03;2.57;;;1.80;;
16998;SDS011;10211;49.476;11.010;2023-07-02T04:09:30;2.33;;;1.53;;
16998;SDS011;10211;49.476;11.010;2023-07-02T04:11:59;2.97;;;1.57;;
16998;SDS011;10211;49.476;11.010;2023-07-02T04:14:26;2.73;;;1.60;;
16998;SDS011;10211;49.476;11.010;2023-07-02T04:16:52;3.10;;;1.80;;
16998;SDS011;10211;49.476;11.010;2023-07-02T04:19:19;1.50;;;1.40;;
16998;SDS011;10211;49.476;11.010;2023-07-02T04:21:46;1.77;;;1.67;;
16998;SDS011;10211;49.476;11.010;2023-07-02T04:24:12;3.07;;;1.80;;
16998;SDS011;10211;49.476;11.010;2023-07-02T04:26:39;1.37;;;1.27;;
16998;SDS011;10211;49.476;11.010;2023-07-02T04:29:09;4.03;;;2.17;;
16998;SDS011;10211;49.476;11.010;2023-07-02T04:31:36;2.90;;;1.73;;
16998;SDS011;10211;49.476;11.010;2023-07-02T04:34:03;2.73;;;1.37;;
16998;SDS011;10211;49.476;11.010;2023-07-02T04:36:30;2.03;;;1.40;;
16998;SDS011;10211;49.476;11.010;2023-07-02T04:38:57;2.07;;;1.90;;
16998;SDS011;10211;49.476;11.010;2023-07-02T04:41:24;2.80;;;1.73;;
16998;SDS011;10211;49.476;11.010;2023-07-02T04:43:51;1.20;;;1.20;;
16998;SDS011;10211;49.476;11.010;2023-07-02T04:46:19;1.43;;;1.33;;
16998;SDS011;10211;49.476;11.010;2023-07-02T04:48:46;1.50;;;1.33;;
16998;SDS011;10211;49.476;11.010;2023-07-02T04:51:13;4.27;;;1.50;;
16998;SDS011;10211;49.476;11.010;2023-07-02T04:53:40;3.70;;;1.50;;
16998;SDS011;10211;49.476;11.010;2023-07-02T04:56:06;2.87;;;1.57;;
16998;SDS011;10211;49.476;11.010;2023-07-02T04:58:33;1.60;;;1.30;;
16998;SDS011;10211;49.476;11.010;2023-07-02T05:01:00;1.37;;;1.27;;
16998;SDS011;10211;49.476;11.010;2023-07-02T05:03:28;2.97;;;1.40;;
16998;SDS011;10211;49.476;11.010;2023-07-02T05:05:54;1.43;;;1.33;;
16998;SDS011;10211;49.476;11.010;2023-07-02T05:08:21;6.10;;;1.80;;
16998;SDS011;10211;49.476;11.010;2023-07-02T05:10:48;3.47;;;1.30;;
16998;SDS011;10211;49.476;11.010;2023-07-02T05:13:14;2.03;;;1.30;;
16998;SDS011;10211;49.476;11.010;2023-07-02T05:15:41;2.93;;;1.60;;
16998;SDS011;10211;49.476;11.010;2023-07-02T05:18:08;3.47;;;1.77;;
16998;SDS011;10211;49.476;11.010;2023-07-02T05:20:36;2.17;;;1.63;;
16998;SDS011;10211;49.476;11.010;2023-07-02T05:23:02;3.07;;;1.80;;
16998;SDS011;10211;49.476;11.010;2023-07-02T05:25:29;4.63;;;1.63;;
16998;SDS011;10211;49.476;11.010;2023-07-02T05:27:57;2.97;;;1.67;;
16998;SDS011;10211;49.476;11.010;2023-07-02T05:30:24;6.63;;;2.50;;
16998;SDS011;10211;49.476;11.010;2023-07-02T05:33:11;4.50;;;1.90;;
16998;SDS011;10211;49.476;11.010;2023-07-02T05:35:39;4.23;;;2.70;;
16998;SDS011;10211;49.476;11.010;2023-07-02T05:38:06;5.20;;;2.50;;
16998;SDS011;10211;49.476;11.010;2023-07-02T05:40:33;3.00;;;2.13;;
16998;SDS011;10211;49.476;11.010;2023-07-02T05:43:00;3.53;;;2.10;;
16998;SDS011;10211;49.476;11.010;2023-07-02T05:45:26;7.87;;;2.20;;
16998;SDS011;10211;49.476;11.010;2023-07-02T05:47:54;2.47;;;2.00;;
16998;SDS011;10211;49.476;11.010;2023-07-02T05:50:20;5.20;;;2.50;;
16998;SDS011;10211;49.476;11.010;2023-07-02T05:52:48;5.13;;;2.53;;
16998;SDS011;10211;49.476;11.010;2023-07-02T05:55:15;4.00;;;2.57;;
16998;SDS011;10211;49.476;11.010;2023-07-02T05:57:41;3.30;;;2.43;;
16998;SDS011;10211;49.476;11.010;2023-07-02T06:00:09;4.87;;;2.30;;
16998;SDS011;10211;49.476;11.010;2023-07-02T06:02:36;4.33;;;2.97;;
16998;SDS011;10211;49.476;11.010;2023-07-02T06:05:03;4.80;;;2.70;;
16998;SDS011;10211;49.476;11.010;2023-07-02T06:07:30;4.53;;;3.00;;
16998;SDS011;10211;49.476;11.010;2023-07-02T06:10:01;4.77;;;3.30;;
16998;SDS011;10211;49.476;11.010;2023-07-02T06:12:28;9.00;;;3.67;;
16998;SDS011;10211;49.476;11.010;2023-07-02T06:14:55;7.47;;;3.53;;
16998;SDS011;10211;49.476;11.010;2023-07-02T06:17:22;6.13;;;3.40;;
16998;SDS011;10211;49.476;11.010;2023-07-02T06:19:50;5.50;;;3.93;;
16998;SDS011;10211;49.476;11.010;2023-07-02T06:22:16;6.83;;;4.10;;
16998;SDS011;10211;49.476;11.010;2023-07-02T06:24:43;9.90;;;4.20;;
16998;SDS011;10211;49.476;11.010;2023-07-02T06:27:11;7.30;;;4.53;;
16998;SDS011;10211;49.476;11.010;2023-07-02T06:29:38;5.93;;;4.03;;
16998;SDS011;10211;49.476;11.010;2023-07-02T06:32:04;6.57;;;3.67;;
16998;SDS011;10211;49.476;11.010;2023-07-02T06:34:32;8.17;;;4.40;;
16998;SDS011;10211;49.476;11.010;2023-07-02T06:36:58;7.03;;;4.33;;
16998;SDS011;10211;49.476;11.010;2023-07-02T06:39:25;9.60;;;5.00;;
16998;SDS011;10211;49.476;11.010;2023-07-02T06:41:51;10.13;;;4.70;;
16998;SDS011;10211;49.476;11.010;2023-07-02T06:44:19;7.60;;;4.70;;
16998;SDS011;10211;49.476;11.010;2023-07-02T06:46:46;7.20;;;4.20;;
16998;SDS011;10211;49.476;11.010;2023-07-02T06:49:13;8.07;;;4.70;;
16998;SDS011;10211;49.476;11.010;2023-07-02T06:51:39;9.63;;;4.93;;
16998;SDS011;10211;49.476;11.010;2023-07-02T06:54:06;6.83;;;4.17;;
16998;SDS011;10211;49.476;11.010;2023-07-02T06:56:33;9.13;;;4.80;;
16998;SDS011;10211;49.476;11.010;2023-07-02T06:59:00;9.87;;;5.17;;
16998;SDS011;10211;49.476;11.010;2023-07-02T07:01:28;10.43;;;4.87;;
16998;SDS011;10211;49.476;11.010;2023-07-02T07:03:55;9.67;;;4.80;;
16998;SDS011;10211;49.476;11.010;2023-07-02T07:06:21;10.90;;;4.77;;
16998;SDS011;10211;49.476;11.010;2023-07-02T07:08:48;6.60;;;4.70;;
16998;SDS011;10211;49.476;11.010;2023-07-02T07:11:14;11.87;;;5.17;;
16998;SDS011;10211;49.476;11.010;2023-07-02T07:13:41;5.97;;;4.40;;
16998;SDS011;10211;49.476;11.010;2023-07-02T07:16:08;9.27;;;4.43;;
16998;SDS011;10211;49.476;11.010;2023-07-02T07:18:36;8.97;;;4.83;;
16998;SDS011;10211;49.476;11.010;2023-07-02T07:21:03;7.17;;;4.20;;
16998;SDS011;10211;49.476;11.010;2023-07-02T07:23:30;9.33;;;5.00;;
16998;SDS011;10211;49.476;11.010;2023-07-02T07:25:56;9.13;;;5.00;;
16998;SDS011;10211;49.476;11.010;2023-07-02T07:28:23;10.13;;;4.83;;
16998;SDS011;10211;49.476;11.010;2023-07-02T07:30:50;8.47;;;4.63;;
16998;SDS011;10211;49.476;11.010;2023-07-02T07:33:16;9.40;;;5.00;;
16998;SDS011;10211;49.476;11.010;2023-07-02T07:35:44;9.13;;;4.80;;
16998;SDS011;10211;49.476;11.010;2023-07-02T07:38:12;7.63;;;4.73;;
16998;SDS011;10211;49.476;11.010;2023-07-02T07:40:39;11.07;;;5.13;;
16998;SDS011;10211;49.476;11.010;2023-07-02T07:43:06;9.80;;;4.30;;
16998;SDS011;10211;49.476;11.010;2023-07-02T07:45:33;6.67;;;4.30;;
16998;SDS011;10211;49.476;11.010;2023-07-02T07:47:59;9.53;;;4.83;;
16998;SDS011;10211;49.476;11.010;2023-07-02T07:50:26;11.13;;;4.40;;
16998;SDS011;10211;49.476;11.010;2023-07-02T07:52:54;8.07;;;3.97;;
16998;SDS011;10211;49.476;11.010;2023-07-02T07:55:21;8.57;;;4.30;;
16998;SDS011;10211;49.476;11.010;2023-07-02T07:57:48;7.47;;;3.97;;
16998;SDS011;10211;49.476;11.010;2023-07-02T08:00:15;7.17;;;3.60;;
16998;SDS011;10211;49.476;11.010;2023-07-02T08:02:42;8.77;;;3.63;;
16998;SDS011;10211;49.476;11.010;2023-07-02T08:05:09;6.30;;;3.13;;
16998;SDS011;10211;49.476;11.010;2023-07-02T08:07:35;6.77;;;3.50;;
16998;SDS011;10211;49.476;11.010;2023-07-02T08:10:04;6.40;;;3.90;;
16998;SDS011;10211;49.476;11.010;2023-07-02T08:12:32;5.07;;;3.17;;
16998;SDS011;10211;49.476;11.010;2023-07-02T08:14:59;9.13;;;3.73;;
16998;SDS011;10211;49.476;11.010;2023-07-02T08:17:26;8.20;;;3.63;;
16998;SDS011;10211;49.476;11.010;2023-07-02T08:19:53;4.07;;;3.00;;
16998;SDS011;10211;49.476;11.010;2023-07-02T08:22:19;3.07;;;2.47;;
16998;SDS011;10211;49.476;11.010;2023-07-02T08:24:46;4.77;;;2.90;;
16998;SDS011;10211;49.476;11.010;2023-07-02T08:27:15;6.67;;;2.90;;
16998;SDS011;10211;49.476;11.010;2023-07-02T08:29:44;5.00;;;3.10;;
16998;SDS011;10211;49.476;11.010;2023-07-02T08:32:11;4.67;;;2.63;;
16998;SDS011;10211;49.476;11.010;2023-07-02T08:34:37;6.37;;;2.77;;
16998;SDS011;10211;49.476;11.010;2023-07-02T08:37:04;4.03;;;2.80;;
16998;SDS011;10211;49.476;11.010;2023-07-02T08:39:31;4.97;;;2.90;;
16998;SDS011;10211;49.476;11.010;2023-07-02T08:41:58;5.23;;;2.87;;
16998;SDS011;10211;49.476;11.010;2023-07-02T08:44:26;5.27;;;2.33;;
16998;SDS011;10211;49.476;11.010;2023-07-02T08:46:52;5.83;;;3.20;;
16998;SDS011;10211;49.476;11.010;2023-07-02T08:49:21;3.10;;;2.60;;
16998;SDS011;10211;49.476;11.010;2023-07-02T08:51:48;4.47;;;3.10;;
16998;SDS011;10211;49.476;11.010;2023-07-02T08:54:16;3.30;;;2.10;;
16998;SDS011;10211;49.476;11.010;2023-07-02T08:56:43;5.23;;;3.07;;
16998;SDS011;10211;49.476;11.010;2023-07-02T08:59:11;4.33;;;3.00;;
16998;SDS011;10211;49.476;11.010;2023-07-02T09:01:49;5.20;;;2.43;;
16998;SDS011;10211;49.476;11.010;2023-07-02T09:04:17;4.50;;;2.87;;
16998;SDS011;10211;49.476;11.010;2023-07-02T09:06:45;3.57;;;2.47;;
16998;SDS011;10211;49.476;11.010;2023-07-02T09:09:12;4.30;;;2.90;;
16998;SDS011;10211;49.476;11.010;2023-07-02T09:11:48;3.37;;;2.63;;
16998;SDS011;10211;49.476;11.010;2023-07-02T09:14:25;4.03;;;2.77;;
16998;SDS011;10211;49.476;11.010;2023-07-02T09:17:04;3.80;;;2.40;;
16998;SDS011;10211;49.476;11.010;2023-07-02T09:19:33;5.40;;;2.57;;
16998;SDS011;10211;49.476;11.010;2023-07-02T09:22:01;3.30;;;2.30;;
16998;SDS011;10211;49.476;11.010;2023-07-02T09:24:28;3.37;;;2.63;;
16998;SDS011;10211;49.476;11.010;2023-07-02T09:26:56;6.00;;;3.13;;
16998;SDS011;10211;49.476;11.010;2023-07-02T09:29:25;3.40;;;2.80;;
16998;SDS011;10211;49.476;11.010;2023-07-02T09:31:53;6.10;;;3.00;;
16998;SDS011;10211;49.476;11.010;2023-07-02T09:34:27;4.30;;;2.73;;
16998;SDS011;10211;49.476;11.010;2023-07-02T09:36:55;5.50;;;2.93;;
16998;SDS011;10211;49.476;11.010;2023-07-02T09:39:25;3.00;;;2.10;;
16998;SDS011;10211;49.476;11.010;2023-07-02T09:41:52;3.57;;;2.27;;
16998;SDS011;10211;49.476;11.010;2023-07-02T09:44:20;5.93;;;2.70;;
16998;SDS011;10211;49.476;11.010;2023-07-02T09:46:48;5.57;;;2.70;;
16998;SDS011;10211;49.476;11.010;2023-07-02T09:49:20;4.77;;;2.50;;
16998;SDS011;10211;49.476;11.010;2023-07-02T09:51:49;3.27;;;2.03;;
16998;SDS011;10211;49.476;11.010;2023-07-02T09:54:16;3.83;;;2.37;;
16998;SDS011;10211;49.476;11.010;2023-07-02T09:56:45;4.22;;;2.88;;
16998;SDS011;10211;49.476;11.010;2023-07-02T09:59:13;4.57;;;2.78;;
16998;SDS011;10211;49.476;11.010;2023-07-02T10:01:39;3.33;;;2.47;;
16998;SDS011;10211;49.476;11.010;2023-07-02T10:04:12;4.82;;;2.83;;
16998;SDS011;10211;49.476;11.010;2023-07-02T10:06:46;3.60;;;2.63;;
16998;SDS011;10211;49.476;11.010;2023-07-02T10:09:15;2.78;;;2.53;;
16998;SDS011;10211;49.476;11.010;2023-07-02T10:11:42;3.35;;;2.40;;
16998;SDS011;10211;49.476;11.010;2023-07-02T10:14:09;3.17;;;2.55;;
16998;SDS011;10211;49.476;11.010;2023-07-02T10:16:47;3.38;;;2.47;;
16998;SDS011;10211;49.476;11.010;2023-07-02T10:19:15;5.20;;;2.58;;
16998;SDS011;10211;49.476;11.010;2023-07-02T10:21:42;8.38;;;3.17;;
16998;SDS011;10211;49.476;11.010;2023-07-02T10:24:11;5.43;;;3.30;;
16998;SDS011;10211;49.476;11.010;2023-07-02T10:26:50;4.15;;;2.75;;
16998;SDS011;10211;49.476;11.010;2023-07-02T10:29:18;4.25;;;2.80;;
16998;SDS011;10211;49.476;11.010;2023-07-02T10:31:48;3.83;;;2.80;;
16998;SDS011;10211;49.476;11.010;2023-07-02T10:34:14;4.85;;;3.13;;
16998;SDS011;10211;49.476;11.010;2023-07-02T10:36:41;5.88;;;3.30;;
16998;SDS011;10211;49.476;11.010;2023-07-02T10:39:08;3.95;;;2.90;;
16998;SDS011;10211;49.476;11.010;2023-07-02T10:41:34;4.10;;;2.95;;
16998;SDS011;10211;49.476;11.010;2023-07-02T10:44:06;4.72;;;3.17;;
16998;SDS011;10211;49.476;11.010;2023-07-02T10:46:34;3.42;;;2.70;;
16998;SDS011;10211;49.476;11.010;2023-07-02T10:49:00;5.30;;;3.30;;
16998;SDS011;10211;49.476;11.010;2023-07-02T10:51:28;4.20;;;3.17;;
16998;SDS011;10211;49.476;11.010;2023-07-02T10:53:57;3.90;;;2.97;;
16998;SDS011;10211;49.476;11.010;2023-07-02T10:56:25;3.22;;;2.53;;
16998;SDS011;10211;49.476;11.010;2023-07-02T10:58:52;4.47;;;3.17;;
16998;SDS011;10211;49.476;11.010;2023-07-02T11:01:24;6.18;;;3.13;;
16998;SDS011;10211;49.476;11.010;2023-07-02T11:03:55;4.22;;;3.40;;
16998;SDS011;10211;49.476;11.010;2023-07-02T11:06:23;3.95;;;3.08;;
16998;SDS011;10211;49.476;11.010;2023-07-02T11:08:50;5.00;;;2.80;;
16998;SDS011;10211;49.476;11.010;2023-07-02T11:11:17;6.43;;;3.47;;
16998;SDS011;10211;49.476;11.010;2023-07-02T11:13:44;5.73;;;3.27;;
16998;SDS011;10211;49.476;11.010;2023-07-02T11:16:22;5.40;;;3.00;;
16998;SDS011;10211;49.476;11.010;2023-07-02T11:18:52;5.40;;;2.83;;
16998;SDS011;10211;49.476;11.010;2023-07-02T11:21:19;3.75;;;2.92;;
16998;SDS011;10211;49.476;11.010;2023-07-02T11:23:46;4.37;;;3.40;;
16998;SDS011;10211;49.476;11.010;2023-07-02T11:26:13;8.50;;;3.67;;
16998;SDS011;10211;49.476;11.010;2023-07-02T11:28:49;6.32;;;3.65;;
16998;SDS011;10211;49.476;11.010;2023-07-02T11:31:28;4.57;;;3.70;;
16998;SDS011;10211;49.476;11.010;2023-07-02T11:33:54;4.95;;;3.90;;
16998;SDS011;10211;49.476;11.010;2023-07-02T11:36:22;4.78;;;3.05;;
16998;SDS011;10211;49.476;11.010;2023-07-02T11:38:50;5.95;;;3.08;;
16998;SDS011;10211;49.476;11.010;2023-07-02T11:41:17;5.82;;;3.45;;
16998;SDS011;10211;49.476;11.010;2023-07-02T11:43:44;4.00;;;3.33;;
16998;SDS011;10211;49.476;11.010;2023-07-02T11:46:12;5.22;;;3.60;;
16998;SDS011;10211;49.476;11.010;2023-07-02T11:48:41;4.97;;;4.35;;
16998;SDS011;10211;49.476;11.010;2023-07-02T11:51:07;6.57;;;4.10;;
16998;SDS011;10211;49.476;11.010;2023-07-02T11:53:34;8.55;;;4.28;;
16998;SDS011;10211;49.476;11.010;2023-07-02T11:56:01;5.80;;;4.95;;
16998;SDS011;10211;49.476;11.010;2023-07-02T11:58:27;5.65;;;4.55;;
16998;SDS011;10211;49.476;11.010;2023-07-02T12:00:54;7.20;;;4.63;;
16998;SDS011;10211;49.476;11.010;2023-07-02T12:03:21;6.97;;;5.32;;
16998;SDS011;10211;49.476;11.010;2023-07-02T12:05:49;8.65;;;5.13;;
16998;SDS011;10211;49.476;11.010;2023-07-02T12:08:16;8.10;;;4.70;;
16998;SDS011;10211;49.476;11.010;2023-07-02T12:10:42;7.20;;;4.80;;
16998;SDS011;10211;49.476;11.010;2023-07-02T12:13:09;7.68;;;5.40;;
16998;SDS011;10211;49.476;11.010;2023-07-02T12:15:36;8.40;;;5.47;;
16998;SDS011;10211;49.476;11.010;2023-07-02T12:18:03;8.60;;;5.68;;
16998;SDS011;10211;49.476;11.010;2023-07-02T12:20:30;8.23;;;6.00;;
16998;SDS011;10211;49.476;11.010;2023-07-02T12:22:57;7.43;;;6.10;;
16998;SDS011;10211;49.476;11.010;2023-07-02T12:25:26;7.95;;;5.85;;
16998;SDS011;10211;49.476;11.010;2023-07-02T12:27:52;8.27;;;6.57;;
16998;SDS011;10211;49.476;11.010;2023-07-02T12:30:19;7.68;;;5.78;;
16998;SDS011;10211;49.476;11.010;2023-07-02T12:32:46;14.85;;;6.38;;
16998;SDS011;10211;49.476;11.010;2023-07-02T12:35:12;8.85;;;6.50;;
16998;SDS011;10211;49.476;11.010;2023-07-02T12:37:43;6.95;;;6.10;;
16998;SDS011;10211;49.476;11.010;2023-07-02T12:40:12;9.63;;;6.18;;
16998;SDS011;10211;49.476;11.010;2023-07-02T12:42:40;9.10;;;6.45;;
16998;SDS011;10211;49.476;11.010;2023-07-02T12:45:07;7.20;;;5.85;;
16998;SDS011;10211;49.476;11.010;2023-07-02T12:47:35;9.05;;;6.05;;
16998;SDS011;10211;49.476;11.010;2023-07-02T12:50:02;8.57;;;5.65;;
16998;SDS011;10211;49.476;11.010;2023-07-02T12:52:29;10.13;;;6.22;;
16998;SDS011;10211;49.476;11.010;2023-07-02T12:54:56;10.50;;;7.07;;
16998;SDS011;10211;49.476;11.010;2023-07-02T12:57:24;8.20;;;5.90;;
16998;SDS011;10211;49.476;11.010;2023-07-02T12:59:51;9.05;;;6.20;;
16998;SDS011;10211;49.476;11.010;2023-07-02T13:02:18;7.93;;;6.05;;
16998;SDS011;10211;49.476;11.010;2023-07-02T13:04:44;9.30;;;6.07;;
16998;SDS011;10211;49.476;11.010;2023-07-02T13:07:11;7.47;;;6.20;;
16998;SDS011;10211;49.476;11.010;2023-07-02T13:09:38;9.90;;;5.90;;
16998;SDS011;10211;49.476;11.010;2023-07-02T13:12:05;10.07;;;6.55;;
16998;SDS011;10211;49.476;11.010;2023-07-02T13:14:33;14.18;;;7.03;;
16998;SDS011;10211;49.476;11.010;2023-07-02T13:17:00;11.20;;;6.95;;
16998;SDS011;10211;49.476;11.010;2023-07-02T13:19:28;13.00;;;6.20;;
16998;SDS011;10211;49.476;11.010;2023-07-02T13:21:55;8.10;;;6.55;;
16998;SDS011;10211;49.476;11.010;2023-07-02T13:24:21;11.02;;;7.35;;
16998;SDS011;10211;49.476;11.010;2023-07-02T13:26:48;12.63;;;7.70;;
16998;SDS011;10211;49.476;11.010;2023-07-02T13:29:15;10.38;;;6.72;;
16998;SDS011;10211;49.476;11.010;2023-07-02T13:31:43;9.65;;;6.90;;
16998;SDS011;10211;49.476;11.010;2023-07-02T13:34:10;11.32;;;6.70;;
16998;SDS011;10211;49.476;11.010;2023-07-02T13:36:37;11.63;;;6.53;;
16998;SDS011;10211;49.476;11.010;2023-07-02T13:39:03;10.15;;;7.15;;
16998;SDS011;10211;49.476;11.010;2023-07-02T13:41:30;12.35;;;7.45;;
16998;SDS011;10211;49.476;11.010;2023-07-02T13:43:56;11.75;;;7.97;;
16998;SDS011;10211;49.476;11.010;2023-07-02T13:46:23;13.15;;;7.38;;
16998;SDS011;10211;49.476;11.010;2023-07-02T13:48:51;12.93;;;7.68;;
16998;SDS011;10211;49.476;11.010;2023-07-02T13:51:18;13.07;;;7.90;;
16998;SDS011;10211;49.476;11.010;2023-07-02T13:53:44;12.02;;;7.97;;
16998;SDS011;10211;49.476;11.010;2023-07-02T13:56:11;14.15;;;8.20;;
16998;SDS011;10211;49.476;11.010;2023-07-02T13:58:59;13.07;;;8.77;;
16998;SDS011;10211;49.476;11.010;2023-07-02T14:01:29;16.50;;;10.90;;
16998;SDS011;10211;49.476;11.010;2023-07-02T14:03:57;16.85;;;12.00;;
16998;SDS011;10211;49.476;11.010;2023-07-02T14:06:24;15.35;;;11.18;;
16998;SDS011;10211;49.476;11.010;2023-07-02T14:08:51;17.50;;;10.77;;
16998;SDS011;10211;49.476;11.010;2023-07-02T14:11:18;16.80;;;9.85;;
16998;SDS011;10211;49.476;11.010;2023-07-02T14:13:45;16.35;;;9.57;;
16998;SDS011;10211;49.476;11.010;2023-07-02T14:16:14;12.20;;;8.35;;
16998;SDS011;10211;49.476;11.010;2023-07-02T14:18:41;15.50;;;8.30;;
16998;SDS011;10211;49.476;11.010;2023-07-02T14:21:07;13.98;;;8.27;;
16998;SDS011;10211;49.476;11.010;2023-07-02T14:23:34;14.45;;;8.30;;
16998;SDS011;10211;49.476;11.010;2023-07-02T14:26:01;13.00;;;8.30;;
16998;SDS011;10211;49.476;11.010;2023-07-02T14:28:27;15.98;;;9.18;;
16998;SDS011;10211;49.476;11.010;2023-07-02T14:30:58;13.30;;;8.95;;
16998;SDS011;10211;49.476;11.010;2023-07-02T14:33:27;13.35;;;8.65;;
16998;SDS011;10211;49.476;11.010;2023-07-02T14:35:55;19.20;;;8.25;;